createdAt,value
2022-10-29T00:00:09.450Z,0.60
2022-10-29T00:02:36.977Z,0.50
2022-10-29T00:05:06.786Z,0.50
2022-10-29T00:07:34.270Z,0.50
2022-10-29T00:10:02.337Z,0.40
2022-10-29T00:12:29.847Z,0.50
2022-10-29T00:14:57.436Z,0.50
2022-10-29T00:17:24.883Z,0.52
2022-10-29T00:19:52.655Z,0.50
2022-10-29T00:22:20.278Z,0.50
2022-10-29T00:24:47.991Z,0.60
2022-10-29T00:27:15.429Z,0.60
2022-10-29T00:29:42.972Z,0.60
2022-10-29T00:32:10.537Z,0.50
2022-10-29T00:34:38.129Z,0.55
2022-10-29T00:37:05.689Z,0.50
2022-10-29T00:39:33.624Z,0.55
2022-10-29T00:42:02.144Z,0.50
2022-10-29T00:44:32.414Z,0.50
2022-10-29T00:47:04.430Z,0.50
2022-10-29T00:49:33.448Z,0.30
2022-10-29T00:52:03.737Z,0.40
2022-10-29T00:54:34.737Z,0.47
2022-10-29T00:57:10.599Z,0.40
2022-10-29T00:59:38.556Z,0.40
2022-10-29T01:02:07.425Z,0.30
2022-10-29T01:04:35.620Z,0.40
2022-10-29T01:07:03.589Z,0.40
2022-10-29T01:09:31.088Z,0.30
2022-10-29T01:11:58.548Z,0.47
2022-10-29T01:14:47.608Z,0.40
2022-10-29T01:17:41.396Z,0.55
2022-10-29T01:20:32.806Z,0.40
2022-10-29T01:23:14.161Z,0.40
2022-10-29T01:26:16.353Z,0.30
2022-10-29T01:29:08.883Z,0.30
2022-10-29T01:31:53.797Z,0.32
2022-10-29T01:34:37.689Z,0.40
2022-10-29T01:37:21.313Z,0.30
2022-10-29T01:42:32.417Z,0.40
2022-10-29T01:45:11.750Z,0.40
2022-10-29T01:47:43.269Z,0.50
2022-10-29T01:50:13.962Z,0.40
2022-10-29T01:52:41.744Z,0.60
2022-10-29T01:55:09.525Z,0.50
2022-10-29T01:57:39.349Z,0.43
2022-10-29T02:00:16.157Z,0.73
2022-10-29T02:03:10.583Z,0.60
2022-10-29T02:05:39.429Z,0.75
2022-10-29T02:08:09.924Z,0.60
2022-10-29T02:10:53.185Z,0.70
2022-10-29T02:13:24.602Z,0.60
2022-10-29T02:15:54.391Z,0.60
2022-10-29T02:18:22.440Z,0.50
2022-10-29T02:20:49.937Z,0.60
2022-10-29T02:23:17.552Z,0.50
2022-10-29T02:25:45.256Z,0.80
2022-10-29T02:28:13.194Z,0.60
2022-10-29T02:30:40.796Z,0.70
2022-10-29T02:33:08.222Z,0.65
2022-10-29T02:35:35.862Z,0.55
2022-10-29T02:38:03.270Z,0.73
2022-10-29T02:40:30.827Z,0.63
2022-10-29T02:42:58.496Z,0.50
2022-10-29T02:45:26.551Z,0.80
2022-10-29T02:47:54.318Z,0.70
2022-10-29T02:50:22.069Z,0.65
2022-10-29T02:52:49.497Z,0.55
2022-10-29T02:55:17.100Z,0.50
2022-10-29T02:57:45.430Z,0.50
2022-10-29T03:00:13.677Z,0.40
2022-10-29T03:02:41.456Z,0.57
2022-10-29T03:05:10.592Z,0.45
2022-10-29T03:07:38.807Z,0.50
2022-10-29T03:10:08.671Z,0.50
2022-10-29T03:12:36.299Z,0.57
2022-10-29T03:15:04.085Z,0.60
2022-10-29T03:17:31.539Z,0.68
2022-10-29T03:19:59.010Z,0.40
2022-10-29T03:22:26.430Z,0.45
2022-10-29T03:24:54.021Z,0.50
2022-10-29T03:27:21.405Z,0.50
2022-10-29T03:29:49.785Z,0.50
2022-10-29T03:32:17.193Z,0.60
2022-10-29T03:34:44.705Z,0.43
2022-10-29T03:37:12.082Z,0.40
2022-10-29T03:39:39.630Z,0.63
2022-10-29T03:42:07.136Z,0.60
2022-10-29T03:44:34.594Z,0.40
2022-10-29T03:47:02.014Z,0.60
2022-10-29T03:49:29.558Z,0.65
2022-10-29T03:51:57.018Z,0.70
2022-10-29T03:54:24.754Z,0.60
2022-10-29T03:56:52.304Z,0.60
2022-10-29T03:59:20.751Z,0.50
2022-10-29T04:01:48.367Z,0.80
2022-10-29T04:04:15.894Z,0.75
2022-10-29T04:06:43.511Z,0.60
2022-10-29T04:09:10.966Z,0.70
2022-10-29T04:11:38.439Z,0.60
2022-10-29T04:14:05.887Z,0.68
2022-10-29T04:16:34.450Z,0.80
2022-10-29T04:19:02.468Z,0.90
2022-10-29T04:29:52.650Z,1.15
2022-10-29T04:32:20.187Z,1.13
2022-10-29T04:34:47.644Z,1.10
2022-10-29T04:37:15.206Z,0.90
2022-10-29T04:39:42.710Z,0.80
2022-10-29T04:42:10.348Z,0.70
2022-10-29T04:44:37.959Z,0.80
2022-10-29T04:47:07.616Z,0.80
2022-10-29T04:49:35.082Z,0.73
2022-10-29T04:52:04.984Z,0.70
2022-10-29T04:54:32.513Z,0.82
2022-10-29T04:57:00.057Z,0.70
2022-10-29T04:59:27.491Z,0.60
2022-10-29T05:01:54.985Z,0.80
2022-10-29T05:04:22.522Z,0.82
2022-10-29T05:06:49.998Z,1.05
2022-10-29T05:09:18.522Z,1.00
2022-10-29T05:11:46.013Z,1.00
2022-10-29T05:14:13.563Z,1.30
2022-10-29T05:16:40.975Z,1.05
2022-10-29T05:19:08.668Z,1.20
2022-10-29T05:21:36.152Z,1.00
2022-10-29T05:24:03.809Z,0.70
2022-10-29T05:26:32.640Z,0.90
2022-10-29T05:29:00.149Z,0.80
2022-10-29T05:31:27.598Z,0.73
2022-10-29T05:33:56.071Z,0.70
2022-10-29T05:36:26.620Z,0.82
2022-10-29T05:38:54.165Z,0.90
2022-10-29T05:41:21.613Z,0.80
2022-10-29T05:43:50.295Z,0.82
2022-10-29T05:46:17.795Z,0.80
2022-10-29T05:48:45.391Z,0.70
2022-10-29T05:51:12.882Z,0.60
2022-10-29T05:53:40.492Z,0.70
2022-10-29T05:56:07.987Z,0.63
2022-10-29T05:58:35.785Z,0.63
2022-10-29T06:01:06.489Z,0.98
2022-10-29T06:03:33.963Z,1.00
2022-10-29T06:06:01.651Z,0.90
2022-10-29T06:08:29.233Z,0.95
2022-10-29T06:10:57.112Z,1.30
2022-10-29T06:13:24.577Z,0.93
2022-10-29T06:15:57.359Z,0.75
2022-10-29T06:18:25.225Z,0.90
2022-10-29T06:20:53.178Z,0.75
2022-10-29T06:23:20.862Z,0.88
2022-10-29T06:25:48.339Z,0.98
2022-10-29T06:28:19.126Z,1.20
2022-10-29T06:30:50.288Z,1.10
2022-10-29T06:33:18.978Z,1.00
2022-10-29T06:35:46.890Z,1.23
2022-10-29T06:38:14.948Z,1.23
2022-10-29T06:40:43.511Z,1.45
2022-10-29T06:43:12.307Z,1.40
2022-10-29T06:45:40.045Z,1.60
2022-10-29T06:48:07.603Z,1.95
2022-10-29T06:50:35.158Z,2.25
2022-10-29T06:53:05.046Z,2.50
2022-10-29T06:55:33.668Z,2.83
2022-10-29T06:58:05.500Z,2.55
2022-10-29T07:00:34.008Z,2.45
2022-10-29T07:03:01.784Z,2.28
2022-10-29T07:05:29.491Z,2.20
2022-10-29T07:07:58.976Z,2.10
2022-10-29T07:10:29.194Z,2.13
2022-10-29T07:12:56.966Z,1.83
2022-10-29T07:15:27.602Z,2.08
2022-10-29T07:18:06.632Z,1.85
2022-10-29T07:20:39.461Z,2.50
2022-10-29T07:23:07.640Z,3.50
2022-10-29T07:25:36.189Z,3.40
2022-10-29T07:28:14.648Z,3.30
2022-10-29T07:30:42.932Z,2.70
2022-10-29T07:33:10.872Z,2.40
2022-10-29T07:35:38.656Z,2.22
2022-10-29T07:38:10.958Z,2.45
2022-10-29T07:40:40.279Z,2.40
2022-10-29T07:43:08.688Z,2.60
2022-10-29T07:45:36.212Z,2.70
2022-10-29T07:48:07.384Z,2.80
2022-10-29T07:50:35.529Z,3.00
2022-10-29T07:53:03.853Z,3.20
2022-10-29T07:55:31.569Z,2.40
2022-10-29T07:58:01.406Z,2.42
2022-10-29T08:00:30.216Z,2.40
2022-10-29T08:02:58.139Z,2.00
2022-10-29T08:05:26.890Z,1.83
2022-10-29T08:07:55.707Z,1.67
2022-10-29T08:10:24.393Z,1.98
2022-10-29T08:12:59.352Z,1.98
2022-10-29T08:15:28.990Z,1.77
2022-10-29T08:17:57.090Z,1.75
2022-10-29T08:20:26.042Z,1.90
2022-10-29T08:22:54.076Z,1.42
2022-10-29T08:25:21.843Z,1.40
2022-10-29T08:28:00.412Z,2.08
2022-10-29T08:30:28.133Z,2.60
2022-10-29T08:32:56.090Z,2.63
2022-10-29T08:35:24.256Z,2.95
2022-10-29T08:37:52.094Z,2.75
2022-10-29T08:40:32.657Z,3.00
2022-10-29T08:43:18.495Z,2.60
2022-10-29T08:45:48.865Z,2.20
2022-10-29T08:48:19.482Z,2.65
2022-10-29T08:50:51.612Z,3.60
2022-10-29T08:53:27.655Z,3.78
2022-10-29T08:56:05.592Z,3.35
2022-10-29T08:58:59.318Z,4.05
2022-10-29T09:01:27.154Z,3.25
2022-10-29T09:03:55.030Z,2.83
2022-10-29T09:06:54.951Z,3.25
2022-10-29T09:09:31.887Z,3.90
2022-10-29T09:12:38.195Z,3.97
2022-10-29T09:15:53.292Z,3.45
2022-10-29T09:18:44.945Z,3.78
2022-10-29T09:21:40.519Z,3.00
2022-10-29T09:24:15.144Z,3.03
2022-10-29T09:26:58.920Z,4.10
2022-10-29T09:32:03.563Z,2.97
2022-10-29T09:34:36.042Z,2.67
2022-10-29T09:37:36.425Z,2.45
2022-10-29T09:40:15.800Z,2.55
2022-10-29T09:42:44.877Z,3.95
2022-10-29T09:45:19.069Z,4.35
2022-10-29T09:48:06.832Z,3.45
2022-10-29T09:50:50.802Z,3.00
2022-10-29T09:53:18.563Z,3.22
2022-10-29T09:55:55.037Z,3.30
2022-10-29T09:58:24.418Z,2.50
2022-10-29T10:00:52.864Z,2.72
2022-10-29T10:03:30.437Z,2.70
2022-10-29T10:06:02.452Z,2.60
2022-10-29T10:08:31.261Z,2.58
2022-10-29T10:11:04.824Z,2.40
2022-10-29T10:13:38.481Z,3.78
2022-10-29T10:16:06.737Z,5.80
2022-10-29T10:21:15.690Z,3.47
2022-10-29T10:23:53.723Z,3.20
2022-10-29T10:26:34.000Z,3.40
2022-10-29T10:29:17.468Z,3.22
2022-10-29T10:31:55.485Z,2.80
2022-10-29T10:34:37.878Z,2.92
2022-10-29T10:37:12.216Z,2.80
2022-10-29T10:39:41.540Z,2.90
2022-10-29T10:42:25.349Z,2.72
2022-10-29T10:45:02.864Z,2.50
2022-10-29T10:47:34.210Z,2.50
2022-10-29T10:50:26.805Z,2.40
2022-10-29T10:52:55.653Z,2.10
2022-10-29T10:55:31.504Z,2.10
2022-10-29T10:58:24.163Z,2.40
2022-10-29T11:00:56.267Z,2.20
2022-10-29T11:03:40.998Z,2.40
2022-10-29T11:06:27.958Z,2.00
2022-10-29T11:09:04.089Z,2.03
2022-10-29T11:11:39.779Z,1.80
2022-10-29T11:14:20.990Z,1.88
2022-10-29T11:16:58.972Z,2.00
2022-10-29T11:19:34.175Z,2.35
2022-10-29T11:22:23.320Z,2.25
2022-10-29T11:25:05.651Z,2.17
2022-10-29T11:27:48.283Z,2.20
2022-10-29T11:30:18.344Z,2.03
2022-10-29T11:32:58.478Z,2.03
2022-10-29T11:35:39.843Z,2.00
2022-10-29T11:38:15.570Z,2.10
2022-10-29T11:40:55.280Z,2.30
2022-10-29T11:43:22.803Z,2.20
2022-10-29T11:45:59.871Z,2.22
2022-10-29T11:48:42.453Z,2.17
2022-10-29T11:51:19.197Z,1.97
2022-10-29T11:54:00.143Z,1.63
2022-10-29T11:56:37.416Z,1.52
2022-10-29T11:59:24.226Z,1.75
2022-10-29T12:02:01.970Z,1.45
2022-10-29T12:05:01.854Z,1.48
2022-10-29T12:08:07.076Z,1.40
2022-10-29T12:11:14.164Z,1.75
2022-10-29T12:13:50.306Z,1.80
2022-10-29T12:16:45.480Z,1.90
2022-10-29T12:19:39.080Z,2.20
2022-10-29T12:22:17.161Z,2.30
2022-10-29T12:25:02.846Z,1.95
2022-10-29T12:27:39.281Z,1.80
2022-10-29T12:30:11.838Z,1.70
2022-10-29T12:32:59.895Z,2.00
2022-10-29T12:35:45.963Z,1.58
2022-10-29T12:38:39.705Z,1.50
2022-10-29T12:41:18.984Z,1.30
2022-10-29T12:43:46.943Z,1.30
2022-10-29T12:46:35.684Z,1.30
2022-10-29T12:49:09.260Z,1.33
2022-10-29T12:54:41.039Z,1.80
2022-10-29T12:57:14.697Z,2.30
2022-10-29T12:59:43.237Z,2.03
2022-10-29T13:02:32.180Z,2.10
2022-10-29T13:05:11.309Z,2.20
2022-10-29T13:07:47.926Z,2.15
2022-10-29T13:10:25.175Z,2.17
2022-10-29T13:12:59.777Z,2.30
2022-10-29T13:15:46.761Z,1.77
2022-10-29T13:18:26.146Z,1.95
2022-10-29T13:20:54.492Z,2.17
2022-10-29T13:23:21.969Z,2.40
2022-10-29T13:25:54.121Z,2.30
2022-10-29T13:28:21.497Z,1.90
2022-10-29T13:30:54.233Z,1.88
2022-10-29T13:38:57.782Z,2.00
2022-10-29T13:41:42.802Z,1.73
2022-10-29T13:44:12.160Z,1.75
2022-10-29T13:46:45.503Z,1.60
2022-10-29T13:49:32.679Z,1.80
2022-10-29T13:52:03.627Z,1.48
2022-10-29T13:54:43.564Z,1.70
2022-10-29T13:57:25.300Z,1.90
2022-10-29T14:00:03.191Z,2.10
2022-10-29T14:02:55.808Z,2.40
2022-10-29T14:05:46.803Z,2.72
2022-10-29T14:08:18.515Z,2.78
2022-10-29T14:10:48.839Z,3.10
2022-10-29T14:13:33.023Z,3.10
2022-10-29T14:16:06.782Z,2.80
2022-10-29T14:18:37.590Z,2.88
2022-10-29T14:21:23.195Z,2.95
2022-10-29T14:24:04.753Z,3.15
2022-10-29T14:26:38.055Z,3.00
2022-10-29T14:32:12.549Z,2.83
2022-10-29T14:34:45.347Z,2.28
2022-10-29T14:37:22.013Z,2.67
2022-10-29T14:40:00.846Z,3.28
2022-10-29T14:42:38.129Z,3.17
2022-10-29T14:45:16.627Z,3.15
2022-10-29T14:47:52.325Z,3.03
2022-10-29T14:50:25.869Z,2.60
2022-10-29T14:53:08.947Z,3.70
2022-10-29T14:55:42.136Z,4.63
2022-10-29T14:58:12.511Z,4.30
2022-10-29T15:00:52.414Z,4.03
2022-10-29T15:03:22.830Z,4.40
2022-10-29T15:05:50.915Z,4.40
2022-10-29T15:08:24.295Z,3.88
2022-10-29T15:10:56.977Z,3.53
2022-10-29T15:13:27.582Z,3.47
2022-10-29T15:16:04.000Z,3.25
2022-10-29T15:18:33.707Z,2.97
2022-10-29T15:21:01.715Z,2.42
2022-10-29T15:23:35.416Z,2.63
2022-10-29T15:26:05.645Z,2.75
2022-10-29T15:28:45.065Z,2.88
2022-10-29T15:31:45.869Z,2.30
2022-10-29T15:34:28.040Z,2.40
2022-10-29T15:36:57.794Z,2.80
2022-10-29T15:39:27.534Z,2.83
2022-10-29T15:41:59.955Z,2.65
2022-10-29T15:44:28.823Z,1.98
2022-10-29T15:46:59.855Z,2.10
2022-10-29T15:49:32.622Z,2.20
2022-10-29T15:52:03.410Z,1.98
2022-10-29T15:54:31.634Z,1.85
2022-10-29T15:57:04.566Z,2.00
2022-10-29T15:59:35.582Z,2.47
2022-10-29T16:02:12.844Z,2.22
2022-10-29T16:04:40.809Z,2.05
2022-10-29T16:07:14.149Z,1.60
2022-10-29T16:12:18.988Z,2.28
2022-10-29T16:14:46.580Z,2.90
2022-10-29T16:17:18.497Z,2.20
2022-10-29T16:19:46.061Z,2.70
2022-10-29T16:22:27.360Z,2.28
2022-10-29T16:24:55.375Z,2.25
2022-10-29T16:27:23.117Z,2.15
2022-10-29T16:29:51.758Z,2.15
2022-10-29T16:32:22.481Z,2.17
2022-10-29T16:34:50.677Z,1.90
2022-10-29T16:37:19.524Z,3.58
2022-10-29T16:39:47.093Z,3.10
2022-10-29T16:42:33.659Z,2.80
2022-10-29T16:45:01.164Z,2.50
2022-10-29T16:47:29.644Z,2.50
2022-10-29T16:49:57.256Z,3.03
2022-10-29T16:52:28.890Z,2.75
2022-10-29T16:54:57.468Z,2.50
2022-10-29T16:57:25.122Z,2.60
2022-10-29T16:59:53.360Z,2.35
2022-10-29T17:02:20.834Z,2.45
2022-10-29T17:04:49.427Z,2.67
2022-10-29T17:07:17.342Z,2.30
2022-10-29T17:09:45.040Z,2.30
2022-10-29T17:12:12.606Z,2.50
2022-10-29T17:14:40.236Z,2.08
2022-10-29T17:17:07.663Z,2.63
2022-10-29T17:19:35.394Z,2.50
2022-10-29T17:22:04.285Z,2.40
2022-10-29T17:24:31.838Z,1.95
2022-10-29T17:26:59.300Z,2.00
2022-10-29T17:29:26.958Z,2.95
2022-10-29T17:31:54.457Z,3.35
2022-10-29T17:34:22.164Z,2.72
2022-10-29T17:36:49.732Z,2.65
2022-10-29T17:39:18.285Z,2.38
2022-10-29T17:41:46.016Z,2.40
2022-10-29T17:44:14.079Z,1.90
2022-10-29T17:46:41.712Z,1.70
2022-10-29T17:49:09.257Z,1.75
2022-10-29T17:51:36.821Z,1.98
2022-10-29T17:54:04.676Z,1.67
2022-10-29T17:56:32.457Z,1.48
2022-10-29T17:59:00.174Z,1.60
2022-10-29T18:01:27.814Z,1.40
2022-10-29T18:03:55.342Z,1.35
2022-10-29T18:06:23.896Z,1.85
2022-10-29T18:08:51.706Z,2.90
2022-10-29T18:11:21.281Z,2.58
2022-10-29T18:13:49.760Z,4.07
2022-10-29T18:16:21.891Z,4.40
2022-10-29T18:19:00.975Z,3.92
2022-10-29T18:21:30.883Z,4.18
2022-10-29T18:23:59.654Z,3.90
2022-10-29T18:26:30.769Z,3.13
2022-10-29T18:29:00.350Z,3.20
2022-10-29T18:31:30.649Z,2.95
2022-10-29T18:34:00.147Z,2.78
2022-10-29T18:36:28.017Z,3.50
2022-10-29T18:38:56.903Z,2.90
2022-10-29T18:41:25.117Z,3.13
2022-10-29T18:43:52.846Z,3.05
2022-10-29T18:46:21.149Z,3.67
2022-10-29T18:48:52.635Z,3.65
2022-10-29T18:51:20.084Z,3.00
2022-10-29T18:53:47.714Z,2.92
2022-10-29T18:56:17.872Z,2.60
2022-10-29T18:58:45.991Z,2.92
2022-10-29T19:01:19.132Z,2.55
2022-10-29T19:03:54.676Z,2.70
2022-10-29T19:06:23.519Z,2.40
2022-10-29T19:08:51.016Z,2.50
2022-10-29T19:11:21.824Z,2.50
2022-10-29T19:14:00.223Z,2.55
2022-10-29T19:16:28.756Z,2.35
2022-10-29T19:18:59.060Z,2.35
2022-10-29T19:21:27.293Z,2.47
2022-10-29T19:23:56.163Z,2.67
2022-10-29T19:26:25.760Z,2.40
2022-10-29T19:28:53.555Z,2.42
2022-10-29T19:31:23.746Z,3.17
2022-10-29T19:33:53.267Z,2.85
2022-10-29T19:36:22.193Z,3.90
2022-10-29T19:38:50.009Z,3.33
2022-10-29T19:41:18.361Z,4.18
2022-10-29T19:43:46.734Z,3.92
2022-10-29T19:46:16.894Z,4.00
2022-10-29T19:48:50.398Z,4.63
2022-10-29T19:51:18.212Z,4.90
2022-10-29T19:53:47.206Z,4.13
2022-10-29T19:56:16.565Z,4.25
2022-10-29T19:58:45.741Z,3.72
2022-10-29T20:01:16.270Z,4.22
2022-10-29T20:03:44.512Z,3.78
2022-10-29T20:06:12.771Z,3.25
2022-10-29T20:08:40.384Z,2.78
2022-10-29T20:11:08.152Z,3.00
2022-10-29T20:13:36.734Z,2.60
2022-10-29T20:16:14.106Z,2.95
2022-10-29T20:18:41.710Z,2.80
2022-10-29T20:21:09.348Z,3.08
2022-10-29T20:23:36.894Z,2.70
2022-10-29T20:26:04.993Z,3.53
2022-10-29T20:28:32.676Z,3.05
2022-10-29T20:31:17.095Z,3.58
2022-10-29T20:33:54.640Z,2.83
2022-10-29T20:36:24.228Z,2.95
2022-10-29T20:38:52.425Z,2.60
2022-10-29T20:41:21.229Z,2.35
2022-10-29T20:43:56.987Z,3.00
2022-10-29T20:46:25.244Z,2.38
2022-10-29T20:48:53.260Z,2.42
2022-10-29T20:51:22.820Z,2.70
2022-10-29T20:53:54.234Z,2.80
2022-10-29T20:56:24.990Z,2.47
2022-10-29T20:58:53.224Z,3.22
2022-10-29T21:01:24.114Z,3.25
2022-10-29T21:03:51.781Z,2.65
2022-10-29T21:06:19.800Z,2.80
2022-10-29T21:08:48.798Z,2.90
2022-10-29T21:11:18.514Z,2.78
2022-10-29T21:13:46.198Z,3.05
2022-10-29T21:16:17.880Z,3.00
2022-10-29T21:18:47.809Z,4.10
2022-10-29T21:21:16.197Z,3.38
2022-10-29T21:23:44.003Z,3.30
2022-10-29T21:26:14.669Z,3.42
2022-10-29T21:28:42.203Z,3.65
2022-10-29T21:31:09.881Z,3.78
2022-10-29T21:33:37.769Z,3.35
2022-10-29T21:36:07.759Z,2.67
2022-10-29T21:38:35.395Z,3.80
2022-10-29T21:41:03.175Z,3.63
2022-10-29T21:43:30.938Z,2.83
2022-10-29T21:45:58.740Z,3.28
2022-10-29T21:48:27.480Z,3.25
2022-10-29T21:51:05.778Z,2.95
2022-10-29T21:53:33.785Z,2.45
2022-10-29T21:56:03.789Z,2.70
2022-10-29T21:58:32.008Z,3.08
2022-10-29T22:01:13.485Z,2.60
2022-10-29T22:03:43.325Z,2.95
2022-10-29T22:06:17.702Z,2.83
2022-10-29T22:08:46.110Z,2.85
2022-10-29T22:11:14.697Z,2.55
2022-10-29T22:13:42.123Z,2.92
2022-10-29T22:16:10.379Z,2.78
2022-10-29T22:18:38.514Z,3.45
2022-10-29T22:21:08.104Z,3.22
2022-10-29T22:23:35.965Z,3.55
2022-10-29T22:26:03.648Z,3.38
2022-10-29T22:28:31.329Z,3.08
2022-10-29T22:31:03.397Z,2.67
2022-10-29T22:33:33.740Z,2.65
2022-10-29T22:36:10.598Z,2.83
2022-10-29T22:38:38.510Z,3.20
2022-10-29T22:41:11.291Z,3.42
2022-10-29T22:43:39.461Z,3.10
2022-10-29T22:46:08.587Z,3.25
2022-10-29T22:48:36.340Z,2.75
2022-10-29T22:51:11.137Z,2.95
2022-10-29T22:53:38.639Z,2.53
2022-10-29T22:56:07.666Z,2.20
2022-10-29T22:58:35.093Z,2.17
2022-10-29T23:01:08.085Z,2.00
2022-10-29T23:03:37.774Z,2.13
2022-10-29T23:06:06.701Z,2.10
2022-10-29T23:08:44.464Z,1.88
2022-10-29T23:11:19.604Z,2.00
2022-10-29T23:13:52.471Z,1.83
2022-10-29T23:16:20.882Z,1.90
2022-10-29T23:18:51.685Z,2.20
2022-10-29T23:21:19.896Z,2.30
2022-10-29T23:23:49.853Z,1.80
2022-10-29T23:26:19.769Z,2.00
2022-10-29T23:28:48.237Z,1.80
2022-10-29T23:31:17.999Z,2.10
2022-10-29T23:33:47.513Z,2.35
2022-10-29T23:36:15.922Z,2.30
2022-10-29T23:38:43.622Z,1.95
2022-10-29T23:41:11.776Z,1.50
2022-10-29T23:43:41.802Z,1.50
2022-10-29T23:46:09.313Z,1.80
2022-10-29T23:48:36.824Z,1.90
2022-10-29T23:51:04.568Z,1.73
2022-10-29T23:53:32.023Z,1.60
2022-10-29T23:56:00.365Z,1.90
2022-10-29T23:58:27.816Z,1.80
